Time;durP1;ratioP1;P1;durP2;ratioP2;P2;SDS_P1;SDS_P2;PMS_P1;PMS_P2;Temp;Humidity;BMP_temperature;BMP_pressure;BME280_temperature;BME280_humidity;BME280_pressure;Samples;Min_cycle;Max_cycle;Signal;HPM_P1;HPM_P2
2023/05/23 00:01:36;;;;;;;25.25;21.35;;;;;;;15.39;83.98;101611.34;3617838;39;20061;-68
2023/05/23 00:04:01;;;;;;;29.52;23.40;;;;;;;15.23;83.79;101586.31;3617175;39;20050;-68
2023/05/23 00:06:27;;;;;;;28.15;22.40;;;;;;;15.54;84.26;101629.25;3615285;39;20093;-68
2023/05/23 00:08:53;;;;;;;28.33;22.10;;;;;;;15.48;84.03;101620.69;3612948;39;20416;-68
2023/05/23 00:11:22;;;;;;;29.42;22.05;;;;;;;15.59;84.02;101634.34;3616631;39;20047;-68
2023/05/23 00:13:50;;;;;;;25.13;20.67;;;;;;;15.59;83.74;101636.19;3616062;39;20062;-67
2023/05/23 00:16:16;;;;;;;25.88;21.50;;;;;;;15.57;84.06;101636.28;3613614;39;20051;-66
2023/05/23 00:18:41;;;;;;;29.25;22.90;;;;;;;15.59;83.49;101636.19;3617566;39;20085;-67
2023/05/23 00:21:08;;;;;;;27.35;21.67;;;;;;;15.56;83.43;101634.56;3616121;39;20070;-67
2023/05/23 00:23:34;;;;;;;25.67;20.00;;;;;;;15.52;84.08;101628.50;3615734;39;20292;-66
2023/05/23 00:26:00;;;;;;;26.00;19.67;;;;;;;15.59;83.87;101639.75;3611415;39;20066;-67
2023/05/23 00:28:26;;;;;;;21.83;18.58;;;;;;;15.59;83.27;101649.75;3613636;39;20050;-66
2023/05/23 00:30:51;;;;;;;24.08;18.70;;;;;;;15.59;83.20;101650.59;3611981;39;20054;-66
2023/05/23 00:33:20;;;;;;;21.60;17.52;;;;;;;15.62;82.55;101655.81;3612153;39;20387;-68
2023/05/23 00:35:47;;;;;;;21.42;16.63;;;;;;;15.62;82.37;101655.81;3615036;39;20114;-66
2023/05/23 00:38:13;;;;;;;20.70;16.55;;;;;;;15.64;82.69;101648.44;3615693;39;20061;-67
2023/05/23 00:40:39;;;;;;;19.10;15.50;;;;;;;15.65;82.02;101642.03;3621491;39;20378;-67
2023/05/23 00:43:07;;;;;;;19.83;14.95;;;;;;;15.65;82.00;101652.88;3615482;39;20063;-67
2023/05/23 00:45:33;;;;;;;19.52;14.65;;;;;;;15.29;81.50;101584.03;3615456;39;20328;-66
2023/05/23 00:47:59;;;;;;;16.88;14.40;;;;;;;15.66;81.19;101651.03;3613598;39;20054;-67
2023/05/23 00:50:28;;;;;;;15.52;13.02;;;;;;;15.65;80.82;101650.19;3614335;39;20139;-66
2023/05/23 00:52:57;;;;;;;18.00;14.02;;;;;;;15.68;81.00;101651.84;3614026;39;20119;-66
2023/05/23 00:55:24;;;;;;;15.18;13.63;;;;;;;15.32;81.02;101588.38;3614503;39;20065;-66
2023/05/23 00:57:54;;;;;;;16.00;13.80;;;;;;;15.69;80.43;101654.44;3613205;39;20065;-66
2023/05/23 01:00:21;;;;;;;16.90;13.82;;;;;;;15.48;80.26;101624.25;3614824;39;20039;-68
2023/05/23 01:02:50;;;;;;;17.73;14.20;;;;;;;15.71;80.44;101654.34;3613039;39;20054;-67
2023/05/23 01:05:17;;;;;;;17.95;14.70;;;;;;;15.68;80.21;101654.56;3615920;39;20177;-67
2023/05/23 01:07:45;;;;;;;18.95;13.93;;;;;;;15.48;79.99;101637.81;3616275;39;20063;-66
2023/05/23 01:10:13;;;;;;;17.33;14.07;;;;;;;15.41;79.24;101631.06;3613744;39;20131;-67
2023/05/23 01:13:16;;;;;;;17.90;14.20;;;;;;;15.62;79.29;101666.66;3614955;39;20104;-67
2023/05/23 01:16:01;;;;;;;20.75;14.38;;;;;;;15.63;79.21;101665.66;3614699;39;20466;-66
2023/05/23 01:18:57;;;;;;;19.33;14.70;;;;;;;15.61;78.62;101669.47;3613226;39;20051;-67
2023/05/23 01:21:25;;;;;;;23.88;14.48;;;;;;;15.61;79.24;101674.91;3615807;39;20083;-67
2023/05/23 01:24:13;;;;;;;19.13;14.57;;;;;;;15.58;79.03;101673.28;3618304;39;20055;-66
2023/05/23 01:27:21;;;;;;;19.95;14.20;;;;;;;15.52;78.06;101670.97;3613945;39;20293;-66
2023/05/23 01:29:55;;;;;;;20.67;12.70;;;;;;;15.49;77.86;101674.75;3615142;39;20056;-66
2023/05/23 01:32:25;;;;;;;15.70;12.35;;;;;;;15.23;77.55;101637.78;3613328;39;20057;-67
2023/05/23 01:34:53;;;;;;;18.77;12.88;;;;;;;15.40;77.63;101683.53;3612878;39;20351;-66
2023/05/23 01:37:19;;;;;;;15.93;11.77;;;;;;;15.39;77.52;101687.22;3616876;39;20053;-66
2023/05/23 01:39:45;;;;;;;19.40;12.57;;;;;;;15.42;77.94;101691.56;3612875;39;20047;-66
2023/05/23 01:42:12;;;;;;;18.48;12.73;;;;;;;15.42;77.80;101681.59;3612853;39;20082;-66
2023/05/23 01:44:39;;;;;;;18.23;12.90;;;;;;;15.42;77.98;101691.56;3613215;39;20054;-66
2023/05/23 01:47:09;;;;;;;19.98;12.80;;;;;;;15.43;77.96;101686.03;3616660;39;20098;-65
2023/05/23 01:49:38;;;;;;;20.90;13.98;;;;;;;15.39;77.68;101680.94;3615259;39;20054;-67
2023/05/23 01:52:09;;;;;;;17.58;13.55;;;;;;;15.41;78.22;101697.94;3614693;39;20166;-66
2023/05/23 01:54:37;;;;;;;24.23;14.65;;;;;;;15.13;78.66;101650.19;3613240;39;20065;-67
2023/05/23 01:57:05;;;;;;;20.45;14.88;;;;;;;15.37;78.52;101688.28;3613418;39;20057;-68
2023/05/23 01:59:31;;;;;;;22.05;15.05;;;;;;;15.36;78.88;101700.97;3616103;39;20054;-65
2023/05/23 02:01:57;;;;;;;22.55;16.02;;;;;;;15.37;79.13;101694.56;3605533;39;20386;-66
2023/05/23 02:04:22;;;;;;;22.50;15.85;;;;;;;15.13;79.27;101663.72;3616356;39;20103;-66
2023/05/23 02:06:48;;;;;;;25.27;16.58;;;;;;;15.29;79.81;101696.94;3617863;39;20055;-66
2023/05/23 02:09:14;;;;;;;21.85;15.68;;;;;;;15.29;79.64;101708.66;3613698;39;20054;-66
2023/05/23 02:11:39;;;;;;;21.05;16.10;;;;;;;15.27;79.66;101705.16;3614424;39;20310;-66
2023/05/23 02:14:06;;;;;;;22.58;16.73;;;;;;;15.24;80.24;101707.22;3614688;39;20065;-67
2023/05/23 02:16:32;;;;;;;27.85;16.45;;;;;;;15.26;79.89;101706.16;3615578;39;20054;-67
2023/05/23 02:18:58;;;;;;;26.42;16.25;;;;;;;15.27;80.34;101709.72;3615622;39;20293;-67
2023/05/23 02:21:24;;;;;;;25.05;16.92;;;;;;;15.22;80.78;101712.75;3613960;39;20322;-67
2023/05/23 02:23:49;;;;;;;24.00;17.00;;;;;;;15.27;80.45;101717.84;3616115;39;20087;-66
2023/05/23 02:26:15;;;;;;;22.70;15.65;;;;;;;15.23;80.37;101716.31;3616903;39;20062;-67
2023/05/23 02:28:41;;;;;;;24.33;16.35;;;;;;;15.21;81.00;101726.38;3619456;39;20381;-67
2023/05/23 02:31:06;;;;;;;24.02;16.05;;;;;;;15.20;81.10;101724.66;3620082;39;20074;-67
2023/05/23 02:33:32;;;;;;;26.10;16.30;;;;;;;15.19;81.24;101733.72;3614498;39;20696;-67
2023/05/23 02:35:57;;;;;;;25.70;16.33;;;;;;;15.16;81.82;101733.94;3613875;39;20061;-67
2023/05/23 02:38:25;;;;;;;22.63;15.32;;;;;;;15.16;81.99;101726.69;3617043;39;20053;-67
2023/05/23 02:40:52;;;;;;;26.75;15.95;;;;;;;15.19;81.92;101722.88;3616785;39;20871;-67
2023/05/23 02:43:20;;;;;;;23.33;15.15;;;;;;;15.19;81.80;101723.78;3613271;39;20058;-67
2023/05/23 02:45:46;;;;;;;21.95;14.68;;;;;;;15.18;82.38;101721.16;3615328;39;20058;-66
2023/05/23 02:48:11;;;;;;;18.50;14.23;;;;;;;15.18;81.38;101721.16;3606412;39;20154;-67
2023/05/23 02:50:37;;;;;;;21.92;13.73;;;;;;;15.19;81.73;101725.59;3613843;39;20062;-67
2023/05/23 02:53:02;;;;;;;22.27;14.13;;;;;;;15.17;81.26;101720.31;3614666;39;20050;-67
2023/05/23 02:55:28;;;;;;;19.10;12.27;;;;;;;15.19;80.99;101731.03;3614317;39;20293;-67
2023/05/23 02:57:55;;;;;;;20.95;13.10;;;;;;;15.15;80.74;101721.38;3613942;39;20081;-67
2023/05/23 03:00:21;;;;;;;18.90;12.70;;;;;;;15.18;80.78;101727.44;3607090;39;20046;-67
2023/05/23 03:02:46;;;;;;;20.10;12.30;;;;;;;15.18;80.00;101716.63;3613784;39;20105;-67
2023/05/23 03:05:12;;;;;;;16.00;10.48;;;;;;;15.17;79.76;101724.84;3613186;39;20051;-68
2023/05/23 03:07:37;;;;;;;14.35;8.90;;;;;;;15.14;79.70;101725.91;3614259;39;20089;-67
2023/05/23 03:10:03;;;;;;;10.27;8.35;;;;;;;15.14;78.60;101725.91;3611830;39;20070;-67
2023/05/23 03:12:29;;;;;;;12.30;8.63;;;;;;;15.13;78.90;101728.72;3614885;39;20046;-67
2023/05/23 03:14:55;;;;;;;13.02;8.27;;;;;;;15.11;78.50;101726.13;3615234;39;20077;-67
2023/05/23 03:17:20;;;;;;;13.32;8.50;;;;;;;15.09;78.80;101726.22;3616329;39;20054;-67
2023/05/23 03:19:46;;;;;;;10.10;8.05;;;;;;;14.98;78.82;101700.84;3615853;39;20046;-67
2023/05/23 03:22:12;;;;;;;12.82;8.00;;;;;;;15.12;78.71;101733.28;3614946;39;20050;-67
2023/05/23 03:24:37;;;;;;;9.45;7.45;;;;;;;15.13;78.24;101726.91;3617077;39;20050;-67
2023/05/23 03:27:03;;;;;;;9.10;7.43;;;;;;;14.95;78.77;101696.50;3618398;39;20073;-66
2023/05/23 03:29:29;;;;;;;9.10;6.55;;;;;;;15.17;78.12;101727.56;3614568;39;20135;-67
2023/05/23 03:31:54;;;;;;;11.15;6.97;;;;;;;15.12;78.05;101724.28;3618008;39;20054;-67
2023/05/23 03:34:22;;;;;;;9.18;6.50;;;;;;;15.14;77.84;101727.78;3615570;39;20065;-67
2023/05/23 03:36:48;;;;;;;9.27;6.28;;;;;;;15.17;78.26;101735.69;3617302;39;20056;-67
2023/05/23 03:39:14;;;;;;;9.60;6.70;;;;;;;15.20;78.14;101743.63;3614001;39;20054;-66
2023/05/23 03:41:40;;;;;;;8.77;6.85;;;;;;;15.20;78.30;101741.75;3614923;39;20059;-67
2023/05/23 03:44:06;;;;;;;9.20;6.85;;;;;;;15.20;77.77;101735.50;3612168;39;20650;-66
2023/05/23 03:46:32;;;;;;;10.48;7.07;;;;;;;15.20;77.99;101738.19;3616954;39;20043;-67
2023/05/23 03:48:57;;;;;;;9.35;6.65;;;;;;;15.19;78.48;101741.84;3613950;39;20296;-66
2023/05/23 03:51:23;;;;;;;12.88;6.97;;;;;;;15.22;78.41;101737.13;3615027;39;20059;-66
2023/05/23 03:53:49;;;;;;;9.98;7.20;;;;;;;15.25;78.06;101742.31;3615238;39;20064;-66
2023/05/23 03:56:14;;;;;;;9.02;7.38;;;;;;;15.27;78.44;101748.50;3613584;39;20086;-67
2023/05/23 03:58:40;;;;;;;9.57;7.43;;;;;;;15.09;78.47;101706.38;3614685;39;20445;-67
2023/05/23 04:01:05;;;;;;;11.55;7.75;;;;;;;15.30;78.17;101747.44;3612336;39;20161;-67
2023/05/23 04:03:31;;;;;;;11.27;8.13;;;;;;;15.29;78.35;101751.13;3613290;39;20074;-69
2023/05/23 04:05:59;;;;;;;12.07;7.90;;;;;;;15.24;78.20;101745.13;3617340;39;20042;-68
2023/05/23 04:08:26;;;;;;;13.73;7.53;;;;;;;14.79;77.66;101674.13;3616274;39;20058;-68
2023/05/23 04:10:51;;;;;;;9.93;7.53;;;;;;;15.27;77.57;101756.63;3613544;39;20116;-67
2023/05/23 04:13:17;;;;;;;12.65;7.75;;;;;;;15.28;77.48;101754.78;3615740;39;20054;-66
2023/05/23 04:15:43;;;;;;;10.50;7.60;;;;;;;15.27;77.55;101758.47;3617001;39;20373;-66
2023/05/23 04:18:09;;;;;;;11.48;7.68;;;;;;;15.25;77.70;101753.16;3615584;39;20055;-67
2023/05/23 04:20:35;;;;;;;9.75;7.75;;;;;;;15.29;77.89;101761.97;3614420;39;20049;-66
2023/05/23 04:23:00;;;;;;;13.88;7.95;;;;;;;15.28;77.94;101761.06;3614894;39;20132;-67
2023/05/23 04:25:26;;;;;;;11.60;7.85;;;;;;;15.29;77.86;101767.38;3613569;39;20062;-66
2023/05/23 04:27:53;;;;;;;11.05;7.32;;;;;;;15.30;77.79;101767.25;3616046;39;20047;-66
2023/05/23 04:30:19;;;;;;;12.20;8.18;;;;;;;15.31;77.88;101776.25;3613182;39;20047;-66
2023/05/23 04:32:45;;;;;;;15.25;8.98;;;;;;;15.30;77.76;101774.53;3616682;39;20062;-66
2023/05/23 04:35:11;;;;;;;14.73;8.68;;;;;;;15.27;78.44;101764.75;3617434;39;21113;-66
2023/05/23 04:37:38;;;;;;;12.88;8.77;;;;;;;15.27;77.96;101769.31;3622269;39;20050;-66
2023/05/23 04:40:06;;;;;;;14.05;8.85;;;;;;;15.29;78.50;101778.22;3613411;39;20093;-66
2023/05/23 04:42:32;;;;;;;17.27;9.52;;;;;;;15.27;78.28;101778.31;3615099;39;20045;-66
2023/05/23 04:44:58;;;;;;;18.50;10.23;;;;;;;15.23;78.09;101782.19;3614051;39;20054;-66
2023/05/23 04:47:26;;;;;;;16.55;10.00;;;;;;;15.22;78.31;101785.00;3615701;39;20062;-66
2023/05/23 04:49:52;;;;;;;18.98;10.43;;;;;;;15.20;78.64;101785.09;3613866;39;20324;-65
2023/05/23 04:52:21;;;;;;;17.08;9.65;;;;;;;15.25;78.58;101785.66;3616199;39;20115;-67
2023/05/23 04:54:47;;;;;;;19.33;10.25;;;;;;;15.19;78.10;101793.31;3619775;39;20058;-66
2023/05/23 04:57:13;;;;;;;21.17;10.70;;;;;;;15.19;78.40;101793.31;3620129;39;21827;-66
2023/05/23 04:59:39;;;;;;;19.15;10.05;;;;;;;15.19;78.46;101799.63;3617220;39;20115;-66
2023/05/23 05:02:05;;;;;;;25.33;11.00;;;;;;;15.20;78.72;101795.06;3610478;39;20120;-66
2023/05/23 05:04:31;;;;;;;22.45;11.18;;;;;;;15.18;78.25;101802.41;3614250;39;20094;-66
2023/05/23 05:06:56;;;;;;;24.98;11.50;;;;;;;15.17;77.87;101806.97;3614576;39;20042;-66
2023/05/23 05:09:22;;;;;;;22.20;11.82;;;;;;;15.16;77.80;101805.25;3614831;39;20075;-66
2023/05/23 05:11:48;;;;;;;24.02;11.50;;;;;;;15.16;78.03;101804.34;3611530;39;20123;-67
2023/05/23 05:14:14;;;;;;;25.02;11.63;;;;;;;15.12;78.11;101810.94;3615258;39;20309;-68
2023/05/23 05:16:41;;;;;;;23.77;11.80;;;;;;;15.09;78.21;101801.19;3617614;39;20065;-67
2023/05/23 05:19:07;;;;;;;23.13;11.57;;;;;;;14.78;78.74;101764.38;3617727;39;20297;-67
2023/05/23 05:21:32;;;;;;;25.13;11.90;;;;;;;15.07;78.36;101816.69;3610853;39;20061;-69
2023/05/23 05:23:58;;;;;;;26.40;12.50;;;;;;;15.07;78.25;101822.97;3614325;39;20058;-67
2023/05/23 05:26:25;;;;;;;24.60;11.93;;;;;;;15.00;77.87;101821.63;3615422;39;20046;-67
2023/05/23 05:28:52;;;;;;;23.50;12.30;;;;;;;14.98;78.12;101828.09;3607248;39;20059;-66
2023/05/23 05:31:17;;;;;;;20.42;11.98;;;;;;;14.91;78.15;101818.63;3619770;39;20305;-67
2023/05/23 05:33:44;;;;;;;22.00;11.77;;;;;;;14.89;78.15;101824.13;3618040;39;20054;-67
2023/05/23 05:36:10;;;;;;;23.80;11.95;;;;;;;14.82;77.99;101833.63;3620148;39;20046;-66
2023/05/23 05:38:36;;;;;;;21.20;11.70;;;;;;;14.80;77.80;101832.84;3623432;39;20297;-66
2023/05/23 05:41:02;;;;;;;25.27;11.95;;;;;;;14.78;78.04;101834.75;3621801;39;20058;-67
2023/05/23 05:43:28;;;;;;;26.70;11.15;;;;;;;14.78;78.12;101838.38;3616238;39;20060;-67
2023/05/23 05:45:53;;;;;;;28.85;11.68;;;;;;;14.80;78.04;101840.97;3617235;39;20094;-67
2023/05/23 05:48:19;;;;;;;24.55;11.57;;;;;;;14.82;77.62;101833.63;3616789;39;20195;-66
2023/05/23 05:50:45;;;;;;;25.65;11.35;;;;;;;14.79;77.12;101831.13;3618083;39;20401;-66
2023/05/23 05:53:12;;;;;;;23.33;10.15;;;;;;;14.83;77.18;101848.88;3617150;39;20123;-66
2023/05/23 05:55:37;;;;;;;21.15;9.75;;;;;;;14.83;76.92;101840.78;3616634;39;20054;-67
2023/05/23 05:58:03;;;;;;;23.52;10.23;;;;;;;14.74;76.56;101834.09;3617743;39;20055;-67
2023/05/23 06:00:30;;;;;;;22.52;10.07;;;;;;;14.82;76.67;101845.31;3617991;39;20054;-67
2023/05/23 06:02:56;;;;;;;20.85;9.57;;;;;;;14.68;76.36;101833.63;3618726;39;20058;-67
2023/05/23 06:05:23;;;;;;;20.08;10.00;;;;;;;14.64;76.20;101841.06;3607593;39;20051;-67
2023/05/23 06:07:50;;;;;;;24.75;9.82;;;;;;;14.68;76.64;101863.38;3615815;39;20047;-67
2023/05/23 06:10:15;;;;;;;20.73;8.77;;;;;;;14.65;76.44;101863.56;3615458;39;20389;-66
2023/05/23 06:12:42;;;;;;;22.00;9.43;;;;;;;14.67;76.57;101864.34;3617870;39;20081;-67
2023/05/23 06:15:08;;;;;;;21.73;8.60;;;;;;;14.63;76.13;101867.25;3619834;39;20065;-67
2023/05/23 06:17:34;;;;;;;20.73;8.60;;;;;;;14.34;76.08;101822.19;3618131;39;20114;-67
2023/05/23 06:20:00;;;;;;;19.83;8.10;;;;;;;14.17;76.14;101807.81;3615557;39;20046;-67
2023/05/23 06:22:25;;;;;;;21.38;7.63;;;;;;;14.36;75.88;101833.75;3617490;39;20073;-67
2023/05/23 06:24:51;;;;;;;15.93;7.82;;;;;;;14.46;75.28;101870.13;3615968;39;20263;-67
2023/05/23 06:27:17;;;;;;;14.98;6.70;;;;;;;14.45;75.95;101879.19;3615187;39;20071;-67
2023/05/23 06:29:42;;;;;;;12.73;6.10;;;;;;;14.42;75.93;101890.19;3616654;39;20305;-67
2023/05/23 06:32:08;;;;;;;11.13;6.13;;;;;;;14.35;75.22;101872.59;3609892;39;20062;-67
2023/05/23 06:34:33;;;;;;;13.30;6.25;;;;;;;14.43;74.83;101886.53;3618737;39;20060;-67
2023/05/23 06:36:59;;;;;;;13.07;6.13;;;;;;;14.45;74.71;101890.00;3617223;39;20053;-67
2023/05/23 06:39:25;;;;;;;16.10;5.88;;;;;;;14.46;74.45;101894.47;3616097;39;20166;-67
2023/05/23 06:41:50;;;;;;;15.57;6.57;;;;;;;14.16;74.19;101843.97;3614564;39;20057;-66
2023/05/23 06:44:16;;;;;;;12.85;5.75;;;;;;;14.45;74.63;101890.00;3616112;39;20064;-66
2023/05/23 06:46:45;;;;;;;13.82;6.25;;;;;;;14.19;74.36;101852.84;3613842;39;20385;-66
2023/05/23 06:49:10;;;;;;;11.90;5.78;;;;;;;14.43;74.47;101908.19;3614656;39;20059;-67
2023/05/23 06:51:36;;;;;;;11.85;5.50;;;;;;;14.44;73.71;101911.75;3613968;39;20062;-67
2023/05/23 06:54:01;;;;;;;14.15;6.50;;;;;;;14.39;74.13;101918.28;3614535;39;20416;-67
2023/05/23 06:56:27;;;;;;;12.85;5.53;;;;;;;14.36;73.47;101923.00;3614615;39;20054;-66
2023/05/23 06:58:53;;;;;;;13.82;5.90;;;;;;;14.30;74.42;101924.28;3612700;39;20225;-67
2023/05/23 07:01:18;;;;;;;13.93;6.70;;;;;;;14.21;75.47;101935.66;3615298;39;20063;-68
2023/05/23 07:03:44;;;;;;;12.90;6.55;;;;;;;14.19;76.02;101921.34;3613595;39;20085;-67
2023/05/23 07:06:11;;;;;;;13.38;6.22;;;;;;;14.11;75.50;101929.91;3605858;39;20104;-67
2023/05/23 07:08:37;;;;;;;12.13;5.60;;;;;;;14.14;74.52;101935.13;3612631;39;20385;-67
2023/05/23 07:11:05;;;;;;;14.48;5.55;;;;;;;13.73;73.99;101856.44;3614796;39;20050;-67
2023/05/23 07:13:31;;;;;;;14.02;5.88;;;;;;;14.19;73.04;101936.69;3614898;39;20058;-67
2023/05/23 07:15:57;;;;;;;12.65;5.40;;;;;;;14.21;73.40;101945.56;3615576;39;20050;-67
2023/05/23 07:18:24;;;;;;;18.52;5.75;;;;;;;14.23;73.03;101949.94;3615021;39;20288;-67
2023/05/23 07:20:50;;;;;;;11.63;5.10;;;;;;;14.26;72.31;101944.34;3614084;39;20043;-67
2023/05/23 07:23:15;;;;;;;11.75;5.05;;;;;;;14.37;71.06;101941.00;3613576;39;20373;-67
2023/05/23 07:25:41;;;;;;;14.82;5.50;;;;;;;14.50;69.76;101944.72;3613988;39;20050;-66
2023/05/23 07:28:08;;;;;;;12.60;5.45;;;;;;;14.57;67.99;101947.94;3616853;39;20519;-66
2023/05/23 07:30:33;;;;;;;10.75;5.22;;;;;;;14.58;66.65;101939.72;3614188;39;20435;-67
2023/05/23 07:32:59;;;;;;;10.40;4.75;;;;;;;14.03;65.18;101834.00;3612440;39;20065;-66
2023/05/23 07:35:25;;;;;;;10.60;4.93;;;;;;;14.82;65.00;101952.72;3614926;39;20089;-66
2023/05/23 07:37:54;;;;;;;10.52;5.03;;;;;;;14.92;64.02;101953.91;3614181;39;20065;-66
2023/05/23 07:40:21;;;;;;;10.93;5.15;;;;;;;14.99;63.06;101960.66;3616525;39;20046;-66
2023/05/23 07:42:47;;;;;;;10.88;4.60;;;;;;;15.24;63.28;101953.72;3614108;39;20058;-66
2023/05/23 07:45:13;;;;;;;12.23;5.20;;;;;;;15.37;61.77;101935.69;3615065;39;20058;-67
2023/05/23 07:47:40;;;;;;;8.48;4.60;;;;;;;15.54;61.46;101957.19;3606488;39;20400;-66
2023/05/23 07:50:07;;;;;;;12.25;5.00;;;;;;;15.62;60.11;101953.97;3617197;39;20061;-65
2023/05/23 07:52:32;;;;;;;10.23;4.70;;;;;;;15.70;60.59;101961.63;3613800;39;20078;-66
2023/05/23 07:54:58;;;;;;;8.75;5.10;;;;;;;15.45;58.95;101919.84;3615611;39;20053;-66
2023/05/23 07:57:25;;;;;;;13.60;5.10;;;;;;;15.64;59.63;101962.00;3616231;39;20042;-66
2023/05/23 07:59:52;;;;;;;11.15;5.15;;;;;;;15.60;59.73;101968.56;3613274;39;20068;-67
2023/05/23 08:02:19;;;;;;;13.40;5.32;;;;;;;15.52;60.46;101966.38;3613317;39;20073;-67
2023/05/23 08:04:46;;;;;;;14.13;5.53;;;;;;;15.46;60.46;101975.75;3606926;39;20066;-67
2023/05/23 08:07:13;;;;;;;10.85;5.32;;;;;;;15.42;60.85;101978.78;3613353;39;20378;-64
2023/05/23 08:09:39;;;;;;;13.63;5.82;;;;;;;15.36;60.72;101965.63;3617439;39;20091;-65
2023/05/23 08:12:07;;;;;;;11.05;5.60;;;;;;;15.44;61.26;101982.25;3616391;39;20047;-67
2023/05/23 08:14:33;;;;;;;8.82;5.30;;;;;;;15.51;60.82;101989.91;3614911;39;20316;-68
2023/05/23 08:16:58;;;;;;;10.85;4.80;;;;;;;15.54;59.83;101992.41;3614664;39;20274;-69
2023/05/23 08:19:24;;;;;;;10.10;5.25;;;;;;;15.47;60.48;101980.19;3614618;39;20062;-67
2023/05/23 08:21:51;;;;;;;12.65;5.03;;;;;;;15.60;60.08;101982.13;3617185;39;20061;-66
2023/05/23 08:24:19;;;;;;;10.02;5.30;;;;;;;15.71;60.35;101990.47;3614313;39;20050;-66
2023/05/23 08:26:44;;;;;;;11.23;5.35;;;;;;;15.75;59.78;101983.88;3613639;39;20055;-67
2023/05/23 08:29:10;;;;;;;12.52;5.18;;;;;;;15.87;59.78;101985.78;3609571;39;20074;-67
2023/05/23 08:31:36;;;;;;;9.98;5.43;;;;;;;15.86;59.39;101984.06;3609164;39;20053;-66
2023/05/23 08:34:01;;;;;;;11.55;5.55;;;;;;;15.78;58.97;101975.53;3617757;39;20051;-67
2023/05/23 08:36:27;;;;;;;9.05;4.60;;;;;;;15.83;59.61;101992.41;3616194;39;20058;-66
2023/05/23 08:38:53;;;;;;;13.38;5.10;;;;;;;15.72;60.14;101993.06;3618782;39;20290;-67
2023/05/23 08:41:21;;;;;;;12.45;4.78;;;;;;;15.61;60.11;101976.63;3613985;39;20118;-68
2023/05/23 08:43:48;;;;;;;7.90;4.30;;;;;;;15.48;60.73;101957.56;3605589;39;20116;-67
2023/05/23 08:46:14;;;;;;;10.27;4.60;;;;;;;15.67;60.52;101997.09;3614345;39;20549;-68
2023/05/23 08:48:49;;;;;;;7.15;3.85;;;;;;;15.62;61.34;101999.16;3615071;39;20047;-69
2023/05/23 08:51:16;;;;;;;9.13;5.00;;;;;;;15.58;62.02;101986.78;3616446;39;20094;-66
2023/05/23 08:53:46;;;;;;;9.82;4.57;;;;;;;15.60;61.71;101995.69;3617610;39;20070;-67
2023/05/23 08:56:12;;;;;;;9.18;4.78;;;;;;;15.79;61.64;101998.97;3616502;39;20061;-67
2023/05/23 08:58:41;;;;;;;8.73;5.03;;;;;;;15.87;62.09;102002.06;3619740;39;20063;-67
2023/05/23 09:01:08;;;;;;;11.55;5.00;;;;;;;15.91;61.64;102002.72;3613431;39;20046;-67
2023/05/23 09:03:36;;;;;;;10.63;4.50;;;;;;;16.04;61.89;102008.22;3612635;39;20303;-67
2023/05/23 09:06:06;;;;;;;6.30;3.90;;;;;;;16.17;61.26;102014.56;3614927;39;20047;-67
2023/05/23 09:08:31;;;;;;;8.85;4.35;;;;;;;16.24;60.98;102016.78;3616557;39;20110;-67
2023/05/23 09:10:57;;;;;;;6.72;3.70;;;;;;;16.31;60.88;102017.25;3615392;39;20301;-66
2023/05/23 09:13:24;;;;;;;9.50;4.43;;;;;;;16.35;60.22;102018.75;3613158;39;20338;-66
2023/05/23 09:16:05;;;;;;;9.43;3.92;;;;;;;16.49;61.23;102028.69;3618998;39;20396;-67
2023/05/23 09:18:39;;;;;;;9.68;4.18;;;;;;;16.48;60.34;102019.69;3616850;39;20055;-66
2023/05/23 09:21:07;;;;;;;11.32;4.45;;;;;;;16.46;60.26;102016.22;3615183;39;20051;-66
2023/05/23 09:23:36;;;;;;;9.48;4.43;;;;;;;16.47;61.16;102023.38;3619906;39;20406;-65
2023/05/23 09:26:05;;;;;;;8.13;3.80;;;;;;;16.44;60.14;102028.13;3613938;39;20063;-65
2023/05/23 09:28:33;;;;;;;8.30;3.85;;;;;;;16.38;61.09;102032.13;3613719;39;20059;-65
2023/05/23 09:31:08;;;;;;;9.95;3.40;;;;;;;16.29;60.00;102027.31;3618445;39;20054;-67
2023/05/23 09:33:51;;;;;;;8.02;3.05;;;;;;;16.31;58.75;102033.53;3616445;39;20064;-65
2023/05/23 09:36:18;;;;;;;9.30;3.30;;;;;;;16.38;60.04;102034.84;3615399;39;20108;-66
2023/05/23 09:38:47;;;;;;;7.80;3.28;;;;;;;16.53;58.72;102032.94;3615737;39;20043;-65
2023/05/23 09:41:13;;;;;;;11.02;3.40;;;;;;;16.63;56.47;102030.47;3613149;39;20128;-66
2023/05/23 09:43:49;;;;;;;9.27;2.83;;;;;;;16.54;54.90;102033.81;3614029;39;20062;-67
2023/05/23 09:46:14;;;;;;;11.15;3.33;;;;;;;16.46;55.54;102020.78;3612142;39;20136;-67
2023/05/23 09:48:50;;;;;;;11.73;3.58;;;;;;;16.35;55.15;102024.19;3616843;39;20309;-65
2023/05/23 09:51:20;;;;;;;9.90;3.15;;;;;;;16.40;54.93;102034.75;3616333;39;20051;-66
2023/05/23 09:53:46;;;;;;;10.05;3.42;;;;;;;16.48;55.16;102029.66;3616029;39;20054;-66
2023/05/23 09:56:15;;;;;;;8.95;3.03;;;;;;;16.64;55.33;102029.50;3615538;39;20042;-66
2023/05/23 09:58:50;;;;;;;9.25;2.90;;;;;;;16.77;53.24;102035.84;3616393;39;20050;-66
2023/05/23 10:01:17;;;;;;;9.32;3.03;;;;;;;16.87;53.62;102025.22;3614061;39;20182;-67
2023/05/23 10:03:56;;;;;;;10.25;2.95;;;;;;;17.06;54.09;102032.97;3615524;39;20059;-67
2023/05/23 10:06:42;;;;;;;10.05;2.70;;;;;;;17.12;51.86;102030.69;3615829;39;20200;-65
2023/05/23 10:09:17;;;;;;;11.98;3.08;;;;;;;17.04;52.32;102037.66;3616454;39;20090;-65
2023/05/23 10:12:38;;;;;;;9.73;2.95;;;;;;;17.13;52.94;102034.28;3617061;39;20367;-67
2023/05/23 10:15:08;;;;;;;8.07;2.85;;;;;;;17.45;51.49;102017.56;3617834;39;20055;-66
2023/05/23 10:17:52;;;;;;;13.13;3.00;;;;;;;18.12;49.40;102028.94;3621449;39;20328;-66
2023/05/23 10:20:24;;;;;;;8.90;2.95;;;;;;;18.53;47.33;102020.38;3618914;39;20062;-66
2023/05/23 10:22:52;;;;;;;7.95;2.60;;;;;;;18.87;47.41;102022.38;3616303;39;20050;-66
2023/05/23 10:25:18;;;;;;;9.82;2.65;;;;;;;19.09;48.84;102030.59;3617556;39;20058;-65
2023/05/23 10:27:47;;;;;;;5.88;2.40;;;;;;;19.59;46.95;102031.16;3606656;39;20097;-65
2023/05/23 10:30:14;;;;;;;6.82;2.70;;;;;;;19.74;44.41;102028.22;3615905;39;20397;-66
2023/05/23 10:32:42;;;;;;;7.15;2.53;;;;;;;19.40;43.68;101992.72;3616143;39;20054;-66
2023/05/23 10:35:30;;;;;;;10.57;2.90;;;;;;;19.49;45.06;102038.34;3617034;39;20061;-66
2023/05/23 10:38:28;;;;;;;9.18;3.03;;;;;;;19.62;45.66;102033.63;3616405;39;20296;-67
2023/05/23 10:41:23;;;;;;;9.38;3.20;;;;;;;19.32;44.11;101992.50;3592671;39;20381;-65
2023/05/23 10:44:16;;;;;;;6.68;2.90;;;;;;;19.47;43.49;102033.03;3616133;39;20047;-66
2023/05/23 10:47:02;;;;;;;8.77;2.90;;;;;;;19.71;43.65;102029.31;3618681;39;20334;-66
2023/05/23 10:49:50;;;;;;;8.77;2.65;;;;;;;20.01;43.37;102020.47;3615637;39;20058;-65
2023/05/23 10:52:17;;;;;;;8.73;2.65;;;;;;;20.09;43.35;102006.19;3615707;39;20120;-66
2023/05/23 10:54:48;;;;;;;13.88;3.20;;;;;;;20.16;42.16;102024.66;3616740;39;20442;-66
2023/05/23 10:57:28;;;;;;;8.15;3.08;;;;;;;19.91;41.70;102020.38;3620716;39;20043;-66
2023/05/23 10:59:54;;;;;;;7.80;3.13;;;;;;;19.89;41.98;102027.84;3614629;39;20063;-66
2023/05/23 11:02:28;;;;;;;11.40;3.05;;;;;;;20.12;42.33;102028.66;3616317;39;20057;-66
2023/05/23 11:05:21;;;;;;;11.55;2.90;;;;;;;20.35;41.86;102032.19;3616195;39;20058;-68
2023/05/23 11:08:07;;;;;;;13.18;3.83;;;;;;;20.25;40.85;102031.22;3617038;39;20057;-66
2023/05/23 11:10:55;;;;;;;7.50;2.90;;;;;;;20.31;42.43;102033.44;3617578;39;20070;-67
2023/05/23 11:13:22;;;;;;;8.07;3.00;;;;;;;20.52;40.29;102039.00;3618831;39;20094;-67
2023/05/23 11:15:48;;;;;;;12.20;3.38;;;;;;;20.68;40.69;102029.47;3620428;39;20073;-67
2023/05/23 11:18:26;;;;;;;9.30;2.90;;;;;;;20.91;38.83;102042.03;3614372;39;20309;-67
2023/05/23 11:20:54;;;;;;;7.88;2.75;;;;;;;21.00;37.01;102022.13;3615499;39;20462;-67
2023/05/23 11:23:21;;;;;;;10.82;2.90;;;;;;;21.00;37.63;102024.00;3614820;39;20050;-66